Time;durP1;ratioP1;P1;durP2;ratioP2;P2;SDS_P1;SDS_P2;PMS_P1;PMS_P2;Temp;Humidity;BMP_temperature;BMP_pressure;BME280_temperature;BME280_humidity;BME280_pressure;Samples;Min_cycle;Max_cycle;Signal;HPM_P1;HPM_P2
2022/09/26 00:00:47;;;;;;;;;18.00;17.75;;;;;17.22;62.94;97739.88;4971328;28;104254;-79
2022/09/26 00:03:14;;;;;;;;;16.00;15.00;;;;;17.21;63.82;97738.22;4966582;28;102862;-79
2022/09/26 00:05:41;;;;;;;;;18.25;16.75;;;;;17.20;64.35;97742.06;4946100;28;102672;-79
2022/09/26 00:08:08;;;;;;;;;18.25;17.25;;;;;17.20;63.26;97748.34;4947746;28;104066;-79
2022/09/26 00:10:35;;;;;;;;;18.75;18.50;;;;;17.19;63.15;97743.97;4943700;28;104200;-79
2022/09/26 00:13:02;;;;;;;;;16.25;16.25;;;;;17.20;63.75;97736.63;4943682;28;105829;-79
2022/09/26 00:15:29;;;;;;;;;16.00;12.50;;;;;17.19;63.42;97729.50;4945441;28;102721;-79
2022/09/26 00:17:56;;;;;;;;;19.00;16.25;;;;;17.20;63.77;97731.16;4946690;28;104010;-79
2022/09/26 00:20:23;;;;;;;;;17.75;16.50;;;;;17.19;62.51;97729.50;4949005;28;104425;-79
2022/09/26 00:22:50;;;;;;;;;22.25;19.00;;;;;17.19;63.12;97721.31;4949093;28;102492;-79
2022/09/26 00:25:18;;;;;;;;;20.50;17.75;;;;;17.18;62.54;97715.00;4949941;28;102748;-79
2022/09/26 00:27:45;;;;;;;;;20.75;19.75;;;;;17.17;63.23;97721.56;4947864;28;108669;-79
2022/09/26 00:30:12;;;;;;;;;18.75;16.75;;;;;17.17;62.64;97718.81;4949805;28;102585;-79
2022/09/26 00:32:39;;;;;;;;;18.00;17.00;;;;;17.17;62.90;97715.25;4951725;28;102394;-79
2022/09/26 00:35:06;;;;;;;;;17.75;17.25;;;;;17.17;62.58;97720.72;4948632;28;104306;-79
2022/09/26 00:37:33;;;;;;;;;18.75;16.00;;;;;17.17;62.89;97723.47;4948944;28;104053;-79
2022/09/26 00:40:00;;;;;;;;;19.25;17.75;;;;;17.16;62.44;97717.16;4949485;28;102829;-79
2022/09/26 00:42:27;;;;;;;;;19.50;16.50;;;;;17.16;62.53;97713.63;4945864;28;102358;-79
2022/09/26 00:44:55;;;;;;;;;18.00;17.25;;;;;17.15;62.62;97701.88;4947032;28;102244;-79
2022/09/26 00:47:45;;;;;;;;;19.75;17.75;;;;;17.15;63.40;97712.00;4946943;28;105975;-79
2022/09/26 00:50:34;;;;;;;;;19.00;18.00;;;;;17.15;62.66;97695.59;4960782;28;102658;-79
2022/09/26 00:53:14;;;;;;;;;16.50;15.75;;;;;17.15;63.67;97701.88;4948500;28;102443;-79
2022/09/26 00:55:57;;;;;;;;;6.00;6.00;;;;;17.15;63.05;97701.06;4943571;28;102700;-79
2022/09/26 00:59:04;;;;;;;;;18.50;16.00;;;;;17.15;63.61;97707.34;4921515;28;108885;-79
2022/09/26 01:01:31;;;;;;;;;17.25;15.75;;;;;17.15;63.52;97701.06;4870873;28;102827;-79
2022/09/26 01:03:58;;;;;;;;;16.75;15.25;;;;;17.14;62.68;97702.97;4938982;28;102640;-79
2022/09/26 01:06:38;;;;;;;;;18.00;17.00;;;;;17.15;62.66;97701.06;4952468;28;102492;-79
2022/09/26 01:09:35;;;;;;;;;24.25;18.00;;;;;17.14;62.74;97711.16;4948762;28;107504;-79
2022/09/26 01:12:24;;;;;;;;;21.25;18.50;;;;;17.14;62.76;97704.88;4946822;28;102731;-79
2022/09/26 01:15:13;;;;;;;;;18.00;17.25;;;;;17.14;61.53;97707.59;4966674;28;102493;-79
2022/09/26 01:17:56;;;;;;;;;17.25;16.25;;;;;17.13;62.14;97697.75;4947769;28;102249;-79
2022/09/26 01:21:01;;;;;;;;;20.00;18.00;;;;;17.12;61.92;97699.66;4965604;28;108640;-79
2022/09/26 01:23:52;;;;;;;;;21.00;17.50;;;;;17.11;62.62;97697.22;4960854;28;102462;-79
2022/09/26 01:26:33;;;;;;;;;19.50;18.75;;;;;17.12;62.66;97701.56;4948138;28;102164;-79
2022/09/26 01:29:30;;;;;;;;;14.25;13.00;;;;;17.10;61.96;97699.13;4945286;28;102463;-79
2022/09/26 01:32:49;;;;;;;;;21.50;19.75;;;;;17.10;62.83;97698.31;4965104;28;108637;-79
2022/09/26 01:34:56;;;;;;;;;20.00;19.00;;;;;17.09;62.59;97689.28;4957123;28;104836;-79
2022/09/26 01:37:41;;;;;;;;;17.75;17.50;;;;;17.09;61.43;97691.19;4970282;28;102473;-79
2022/09/26 01:40:59;;;;;;;;;14.75;14.75;;;;;17.08;62.07;97684.91;4933976;28;102278;-79
2022/09/26 01:43:48;;;;;;;;;20.00;18.50;;;;;17.10;62.88;97681.91;4920407;28;109122;-78
2022/09/26 01:46:39;;;;;;;;;19.75;17.25;;;;;17.09;62.66;97664.69;4963291;28;104085;-79
2022/09/26 01:49:11;;;;;;;;;18.50;17.00;;;;;17.09;61.91;97664.69;4950415;28;102567;-78
2022/09/26 01:51:47;;;;;;;;;15.75;13.75;;;;;17.10;61.96;97676.44;4965650;28;104580;-78
2022/09/26 01:54:17;;;;;;;;;18.25;16.50;;;;;17.10;62.63;97665.53;4967647;28;108920;-78
2022/09/26 01:56:45;;;;;;;;;22.00;18.50;;;;;17.09;62.03;97664.69;4948338;28;102588;-79
2022/09/26 01:59:15;;;;;;;;;20.25;19.25;;;;;17.09;62.36;97663.88;4949921;28;102799;-79
2022/09/26 02:01:42;;;;;;;;;15.50;15.00;;;;;17.08;62.90;97657.59;4968318;28;102419;-79
2022/09/26 02:04:15;;;;;;;;;16.50;15.25;;;;;17.08;61.83;97652.13;4919464;28;104288;-78
2022/09/26 02:06:46;;;;;;;;;21.00;18.50;;;;;17.08;62.39;97651.28;4950398;28;102267;-79
2022/09/26 02:09:16;;;;;;;;;20.25;19.50;;;;;17.07;62.06;97653.19;4973872;28;102429;-79
2022/09/26 02:11:44;;;;;;;;;21.25;18.50;;;;;17.07;61.83;97645.00;4944106;28;102848;-78
2022/09/26 02:14:43;;;;;;;;;20.25;17.75;;;;;17.07;61.77;97649.66;4942288;28;104035;-79
2022/09/26 02:17:12;;;;;;;;;20.50;18.25;;;;;17.06;62.48;97656.22;4943745;28;102281;-79
2022/09/26 02:19:55;;;;;;;;;19.75;18.50;;;;;17.06;62.00;97648.03;4950629;28;104251;-79
2022/09/26 02:22:24;;;;;;;;;17.75;17.00;;;;;17.06;61.94;97648.03;4964316;28;102703;-79
2022/09/26 02:24:52;;;;;;;;;18.00;17.00;;;;;17.05;61.92;97647.19;4947500;28;104301;-79
2022/09/26 02:27:19;;;;;;;;;16.75;16.75;;;;;17.05;62.33;97636.28;4950737;28;102702;-79
2022/09/26 02:29:45;;;;;;;;;23.75;19.50;;;;;17.06;62.97;97642.56;4949843;28;102390;-78
2022/09/26 02:32:18;;;;;;;;;16.00;15.25;;;;;17.05;63.21;97639.00;4968015;28;103061;-79
2022/09/26 02:34:46;;;;;;;;;20.50;16.50;;;;;17.05;63.75;97647.19;4933175;28;109247;-78
2022/09/26 02:37:16;;;;;;;;;19.00;19.00;;;;;17.06;62.95;97637.94;4945699;28;102688;-78
2022/09/26 02:39:44;;;;;;;;;28.25;22.75;;;;;17.05;62.46;97636.28;4946725;28;102117;-79
2022/09/26 02:42:35;;;;;;;;;21.50;18.25;;;;;17.06;62.38;97621.53;4947783;28;102249;-78
2022/09/26 02:45:05;;;;;;;;;20.75;18.50;;;;;17.06;62.39;97620.72;4949739;28;108753;-78
2022/09/26 02:47:57;;;;;;;;;19.00;17.75;;;;;17.05;62.52;97625.34;4963711;28;102530;-78
2022/09/26 02:50:30;;;;;;;;;18.50;17.50;;;;;17.05;61.82;97614.44;4929590;28;102240;-79
2022/09/26 02:53:10;;;;;;;;;21.25;20.00;;;;;17.06;62.53;97620.72;4967802;28;102367;-78
2022/09/26 02:56:02;;;;;;;;;20.00;17.75;;;;;17.06;62.06;97620.72;4946382;28;104060;-78
2022/09/26 02:58:34;;;;;;;;;22.50;17.50;;;;;17.05;62.36;97619.06;4949827;28;102580;-78
2022/09/26 03:01:09;;;;;;;;;18.50;15.25;;;;;17.05;62.35;97621.78;4949111;28;102728;-78
2022/09/26 03:03:48;;;;;;;;;16.00;16.00;;;;;17.04;61.60;97611.94;4950213;28;102340;-79
2022/09/26 03:06:16;;;;;;;;;17.75;17.00;;;;;17.03;62.78;97610.31;4937914;28;109044;-78
2022/09/26 03:08:45;;;;;;;;;19.00;18.00;;;;;17.04;62.47;97617.41;4946352;28;103717;-78
2022/09/26 03:11:15;;;;;;;;;18.00;16.25;;;;;17.02;62.71;97606.75;4936222;28;102511;-79
2022/09/26 03:13:42;;;;;;;;;23.75;18.00;;;;;17.02;62.27;97598.56;4953928;28;102560;-78
2022/09/26 03:16:09;;;;;;;;;20.50;19.25;;;;;17.03;61.81;97599.38;4933004;28;104096;-78
2022/09/26 03:18:44;;;;;;;;;20.75;17.50;;;;;17.02;62.41;97593.09;4952891;28;104462;-78
2022/09/26 03:21:13;;;;;;;;;19.50;18.50;;;;;17.03;61.80;97591.19;4949964;28;104146;-78
2022/09/26 03:23:40;;;;;;;;;19.25;18.00;;;;;17.03;62.40;97591.19;4966114;28;102641;-79
2022/09/26 03:26:09;;;;;;;;;19.50;17.75;;;;;17.03;63.02;97592.00;4966571;28;104187;-78
2022/09/26 03:28:36;;;;;;;;;18.50;17.50;;;;;17.03;62.75;97591.19;4952799;28;103267;-79
2022/09/26 03:31:04;;;;;;;;;23.50;18.00;;;;;17.02;62.65;97589.56;4967121;28;104402;-79
2022/09/26 03:33:31;;;;;;;;;19.50;18.25;;;;;17.02;64.08;97587.63;4949644;28;102448;-78
2022/09/26 03:35:59;;;;;;;;;17.50;15.75;;;;;17.02;62.71;97587.63;4968227;28;104026;-79
2022/09/26 03:38:26;;;;;;;;;15.00;14.00;;;;;17.02;61.98;97589.56;4966003;28;102561;-79
2022/09/26 03:40:53;;;;;;;;;16.50;15.25;;;;;17.02;63.02;97590.34;4929716;28;104388;-78
2022/09/26 03:43:23;;;;;;;;;18.25;17.50;;;;;17.03;63.12;97583.00;4972040;28;102536;-79
2022/09/26 03:45:50;;;;;;;;;25.50;22.00;;;;;17.02;62.63;97582.16;4967028;28;104044;-79
2022/09/26 03:48:17;;;;;;;;;17.75;17.75;;;;;17.02;62.25;97581.38;4936870;28;102670;-78
2022/09/26 03:50:44;;;;;;;;;17.25;16.75;;;;;17.01;62.46;97577.00;4958123;28;102542;-79
2022/09/26 03:53:11;;;;;;;;;18.75;17.25;;;;;17.01;62.73;97574.25;4968350;28;102510;-78
2022/09/26 03:55:38;;;;;;;;;19.00;17.00;;;;;17.01;62.49;97579.72;4962625;28;104311;-77
2022/09/26 03:58:05;;;;;;;;;22.00;18.00;;;;;17.00;62.27;97565.25;4966125;28;103347;-78
2022/09/26 04:00:32;;;;;;;;;21.00;18.00;;;;;17.00;62.08;97567.16;4970702;28;102522;-78
2022/09/26 04:03:03;;;;;;;;;19.00;17.00;;;;;16.99;62.87;97571.78;4968813;28;102316;-78
2022/09/26 04:05:31;;;;;;;;;17.50;15.00;;;;;17.00;62.21;97558.94;4944174;28;104045;-78
2022/09/26 04:07:59;;;;;;;;;21.50;17.75;;;;;17.00;62.55;97558.94;4970083;28;102516;-79
2022/09/26 04:10:26;;;;;;;;;19.00;17.00;;;;;17.01;62.55;97557.88;4966839;28;102611;-79
2022/09/26 04:12:53;;;;;;;;;19.75;18.00;;;;;17.00;63.06;97561.69;4963057;28;102405;-79
2022/09/26 04:15:20;;;;;;;;;18.50;18.00;;;;;17.00;63.11;97557.03;4968891;28;104292;-79
2022/09/26 04:17:47;;;;;;;;;22.25;19.50;;;;;17.01;63.19;97558.69;4967531;28;102400;-78
2022/09/26 04:20:14;;;;;;;;;18.75;17.75;;;;;17.02;62.56;97556.78;4965835;28;102464;-79
2022/09/26 04:22:41;;;;;;;;;20.25;19.00;;;;;17.01;63.81;97558.69;4963002;28;102334;-79
2022/09/26 04:25:09;;;;;;;;;16.00;15.50;;;;;17.02;62.37;97560.31;4924841;28;104142;-79
2022/09/26 04:27:36;;;;;;;;;18.75;15.75;;;;;17.01;62.37;97553.22;4949513;28;102574;-78
2022/09/26 04:30:04;;;;;;;;;19.25;18.00;;;;;17.00;63.83;97543.41;4969830;28;102761;-78
2022/09/26 04:32:31;;;;;;;;;18.50;17.50;;;;;17.02;62.68;97548.59;4960333;28;102494;-79
2022/09/26 04:34:58;;;;;;;;;18.00;17.75;;;;;17.00;62.59;97548.84;4968511;28;104090;-79
2022/09/26 04:37:25;;;;;;;;;19.50;17.75;;;;;16.99;62.47;97544.47;4966444;28;102422;-79
2022/09/26 04:39:52;;;;;;;;;20.25;17.50;;;;;17.00;62.84;97537.09;4960398;28;102049;-79
2022/09/26 04:42:19;;;;;;;;;18.25;17.00;;;;;17.00;61.92;97548.03;4956234;28;103513;-82
2022/09/26 04:44:47;;;;;;;;;19.25;18.50;;;;;16.99;62.27;97549.94;4960940;28;104090;-79
2022/09/26 04:47:13;;;;;;;;;17.25;17.25;;;;;16.99;62.60;97543.66;4971475;28;102498;-79
2022/09/26 04:49:41;;;;;;;;;17.50;16.00;;;;;16.99;63.46;97549.09;4966437;28;102635;-79
2022/09/26 04:52:08;;;;;;;;;16.75;16.25;;;;;16.98;62.93;97542.81;4969234;28;102265;-78
2022/09/26 04:54:37;;;;;;;;;19.50;19.00;;;;;16.97;62.51;97552.13;4952632;28;104283;-79
2022/09/26 04:57:04;;;;;;;;;18.00;17.00;;;;;16.98;62.33;97552.94;4962863;28;102684;-79
2022/09/26 04:59:31;;;;;;;;;17.25;16.75;;;;;16.97;62.38;97546.66;4966116;28;102370;-78
2022/09/26 05:01:59;;;;;;;;;20.25;18.00;;;;;16.97;63.24;97548.56;4945047;28;102571;-79
2022/09/26 05:04:26;;;;;;;;;16.25;15.50;;;;;16.97;62.45;97546.66;4944646;28;104130;-78
2022/09/26 05:06:56;;;;;;;;;16.75;15.75;;;;;16.98;62.57;97542.00;4963025;28;102710;-79
2022/09/26 05:09:24;;;;;;;;;23.00;16.50;;;;;16.99;62.94;97540.91;4968772;28;102436;-79
2022/09/26 05:11:51;;;;;;;;;16.25;14.00;;;;;16.99;62.51;97538.19;4955789;28;102640;-79
2022/09/26 05:14:18;;;;;;;;;14.50;13.75;;;;;17.00;63.26;97539.84;4952898;28;104068;-79
2022/09/26 05:16:45;;;;;;;;;16.75;15.50;;;;;17.00;63.46;97539.84;4955966;28;102428;-78
2022/09/26 05:19:13;;;;;;;;;19.00;19.00;;;;;17.00;63.40;97534.38;4967955;28;103297;-79
2022/09/26 05:21:41;;;;;;;;;17.00;16.00;;;;;16.99;62.41;97543.66;4973741;28;102594;-79
2022/09/26 05:26:54;;;;;;;;;18.50;14.25;;;;;16.99;63.42;97533.56;4970352;28;102288;-79
2022/09/26 05:29:21;;;;;;;;;16.00;16.00;;;;;16.98;62.99;97534.63;4957882;28;102152;-79
2022/09/26 05:31:49;;;;;;;;;21.00;17.75;;;;;16.99;62.54;97530.00;4952094;28;102367;-79
2022/09/26 05:34:16;;;;;;;;;18.75;18.50;;;;;16.98;63.47;97525.63;4953610;28;108751;-78
2022/09/26 05:36:46;;;;;;;;;16.75;15.25;;;;;16.98;62.70;97525.63;4945328;28;102576;-79
2022/09/26 05:41:58;;;;;;;;;18.25;17.25;;;;;16.97;62.34;97529.47;4958881;28;102385;-78
2022/09/26 05:44:26;;;;;;;;;19.25;16.50;;;;;16.97;62.95;97532.19;4964789;28;104038;-79
2022/09/26 05:46:53;;;;;;;;;21.25;18.00;;;;;16.95;62.32;97533.28;4938534;28;103145;-78
2022/09/26 05:49:20;;;;;;;;;18.00;15.00;;;;;16.95;62.84;97526.97;4960614;28;102276;-79
2022/09/26 05:51:47;;;;;;;;;18.75;17.00;;;;;16.96;62.75;97534.09;4964313;28;102970;-79
2022/09/26 05:54:15;;;;;;;;;20.25;17.75;;;;;16.97;63.33;97527.56;4970253;28;108707;-78
2022/09/26 05:56:42;;;;;;;;;22.50;18.75;;;;;16.97;63.09;97541.22;4964733;28;102500;-79
2022/09/26 05:59:09;;;;;;;;;17.00;16.00;;;;;16.98;62.80;97537.38;4969287;28;102237;-78
2022/09/26 06:01:36;;;;;;;;;17.25;16.25;;;;;16.98;62.30;97533.81;4965812;28;102653;-78
2022/09/26 06:04:03;;;;;;;;;17.50;16.00;;;;;16.98;62.96;97531.91;4961054;28;104057;-78
2022/09/26 06:06:30;;;;;;;;;20.00;17.75;;;;;16.98;62.70;97533.81;4959654;28;102261;-78
2022/09/26 06:08:57;;;;;;;;;17.25;16.25;;;;;16.98;63.39;97528.34;4967241;28;102492;-79
2022/09/26 06:11:28;;;;;;;;;15.50;15.00;;;;;16.99;63.03;97535.44;4963884;28;102726;-79
2022/09/26 06:13:56;;;;;;;;;18.50;17.25;;;;;16.99;62.44;97535.44;4970387;28;104068;-79
2022/09/26 06:16:23;;;;;;;;;17.75;16.75;;;;;16.98;63.09;97528.34;4955783;28;102499;-79
2022/09/26 06:18:51;;;;;;;;;18.25;16.75;;;;;16.99;62.88;97532.72;4961046;28;102393;-79
2022/09/26 06:21:18;;;;;;;;;19.50;15.75;;;;;16.98;62.36;97529.16;4958202;28;102074;-79
2022/09/26 06:23:46;;;;;;;;;19.25;18.00;;;;;16.99;62.75;97527.25;4939811;28;108866;-79
2022/09/26 06:26:23;;;;;;;;;22.25;19.25;;;;;16.98;63.21;97533.81;4960472;28;102787;-80
2022/09/26 06:28:56;;;;;;;;;20.00;18.00;;;;;16.97;63.13;97524.81;4945406;28;102218;-80
2022/09/26 06:31:24;;;;;;;;;19.00;17.00;;;;;16.97;62.43;97524.00;4966896;28;103370;-80
2022/09/26 06:33:52;;;;;;;;;23.25;17.25;;;;;16.97;62.29;97524.81;4949995;28;104329;-81
2022/09/26 06:36:20;;;;;;;;;16.00;15.00;;;;;16.97;62.82;97518.53;4962061;28;102310;-80
2022/09/26 06:38:47;;;;;;;;;17.00;15.50;;;;;16.97;62.55;97529.47;4965103;28;103125;-80
2022/09/26 06:41:15;;;;;;;;;17.50;16.00;;;;;16.97;62.39;97532.19;4949452;28;102575;-80
2022/09/26 06:43:45;;;;;;;;;19.75;15.75;;;;;16.95;63.09;97525.06;4951577;28;104203;-80
2022/09/26 06:46:12;;;;;;;;;17.00;15.50;;;;;16.96;62.79;97523.16;4967946;28;102596;-80
2022/09/26 06:48:39;;;;;;;;;15.50;15.50;;;;;16.97;63.40;97529.47;4969434;28;102601;-80
2022/09/26 06:51:12;;;;;;;;;21.00;18.00;;;;;16.98;63.08;97525.63;4972163;28;102774;-80
2022/09/26 06:53:40;;;;;;;;;19.00;17.00;;;;;16.98;63.45;97525.63;4973273;28;104071;-80
2022/09/26 06:56:09;;;;;;;;;20.00;16.50;;;;;16.98;62.39;97526.44;4970953;28;102438;-80
2022/09/26 06:58:38;;;;;;;;;20.75;16.50;;;;;16.99;62.83;97527.25;4964360;28;102580;-80
2022/09/26 07:01:08;;;;;;;;;21.00;19.25;;;;;16.99;63.00;97532.72;4975535;28;102578;-80
2022/09/26 07:03:36;;;;;;;;;17.50;14.75;;;;;16.99;62.28;97527.25;4954516;28;110526;-80
2022/09/26 07:06:08;;;;;;;;;12.00;12.00;;;;;17.00;63.47;97526.19;4962001;28;102181;-80
2022/09/26 07:08:36;;;;;;;;;18.25;16.50;;;;;17.00;62.44;97523.44;4967855;28;102029;-80
2022/09/26 07:11:23;;;;;;;;;18.00;18.00;;;;;16.99;62.74;97519.06;4945975;28;102938;-80
2022/09/26 07:14:13;;;;;;;;;19.50;17.25;;;;;16.99;62.76;97521.81;4951755;28;102780;-81
2022/09/26 07:16:40;;;;;;;;;19.00;18.50;;;;;16.99;62.73;97522.63;4965639;28;102377;-80
2022/09/26 07:19:07;;;;;;;;;17.25;17.00;;;;;16.99;62.77;97530.00;4968952;28;102612;-80
2022/09/26 07:21:34;;;;;;;;;17.50;16.50;;;;;17.00;62.54;97534.38;4935766;28;102528;-80
2022/09/26 07:24:01;;;;;;;;;19.00;16.75;;;;;17.00;63.00;97523.44;4941810;28;104049;-81
2022/09/26 07:26:28;;;;;;;;;21.00;18.25;;;;;17.00;62.49;97531.66;4942918;28;102327;-80
2022/09/26 07:28:55;;;;;;;;;23.00;18.50;;;;;17.00;62.16;97528.91;4970476;28;106688;-81
2022/09/26 07:31:22;;;;;;;;;21.25;18.75;;;;;17.00;63.37;97528.91;4933902;28;102254;-81
2022/09/26 07:33:49;;;;;;;;;19.00;15.75;;;;;17.01;63.32;97527.84;4948899;28;104225;-80
2022/09/26 07:36:17;;;;;;;;;16.00;16.00;;;;;17.02;62.43;97515.81;4967384;28;102609;-80
2022/09/26 07:38:47;;;;;;;;;16.25;14.25;;;;;17.02;63.03;97526.75;4947712;28;102601;-80
2022/09/26 07:41:14;;;;;;;;;18.75;16.50;;;;;17.03;62.48;97514.72;4963445;28;102745;-79
2022/09/26 07:43:41;;;;;;;;;15.75;15.75;;;;;17.02;63.09;97524.81;4967875;28;103997;-80
2022/09/26 07:52:00;;;;;;;;;15.75;15.50;;;;;17.03;62.74;97526.47;4957291;28;102160;-80
2022/09/26 07:54:27;;;;;;;;;20.50;17.75;;;;;17.04;62.89;97530.00;4954534;28;104211;-80
2022/09/26 07:56:54;;;;;;;;;16.00;15.50;;;;;17.04;62.95;97525.38;4962262;28;102247;-80
2022/09/26 07:59:21;;;;;;;;;11.50;11.25;;;;;17.05;61.72;97534.41;4973489;28;102553;-82
2022/09/26 08:01:48;;;;;;;;;17.25;16.50;;;;;17.04;62.79;97519.91;4975149;28;102695;-80
2022/09/26 08:04:17;;;;;;;;;19.00;17.75;;;;;17.05;62.85;97527.03;4954501;28;104215;-80
2022/09/26 08:06:44;;;;;;;;;20.50;18.25;;;;;17.05;62.47;97531.66;4971669;28;102249;-80
2022/09/26 08:09:12;;;;;;;;;20.00;18.25;;;;;17.05;62.79;97531.66;4968045;28;102223;-80
2022/09/26 08:11:39;;;;;;;;;14.00;14.00;;;;;17.05;61.91;97532.50;4954689;28;102495;-80
2022/09/26 08:14:06;;;;;;;;;16.75;15.50;;;;;17.05;62.35;97537.94;4970904;28;104038;-80
2022/09/26 08:16:33;;;;;;;;;19.50;17.75;;;;;17.05;62.19;97527.03;4967004;28;102661;-80
2022/09/26 08:19:00;;;;;;;;;18.75;18.50;;;;;17.06;62.19;97533.31;4947321;28;102621;-80
2022/09/26 08:21:27;;;;;;;;;17.25;16.00;;;;;17.06;62.17;97530.59;4959610;28;102350;-80
2022/09/26 08:23:54;;;;;;;;;16.75;16.00;;;;;17.05;63.06;97529.75;4971504;28;103991;-81
2022/09/26 08:26:22;;;;;;;;;17.50;15.75;;;;;17.07;62.50;97524.00;4964556;28;105715;-80
2022/09/26 08:28:50;;;;;;;;;22.00;17.25;;;;;17.06;62.39;97527.84;4971679;28;102655;-80
2022/09/26 08:31:17;;;;;;;;;15.00;13.50;;;;;17.08;62.12;97531.13;4966579;28;102229;-81
2022/09/26 08:33:44;;;;;;;;;17.75;16.00;;;;;17.08;63.23;97531.13;4952290;28;102791;-80
2022/09/26 08:36:12;;;;;;;;;11.00;11.00;;;;;17.08;63.36;97520.19;4966860;28;102335;-80
2022/09/26 08:38:39;;;;;;;;;14.25;14.00;;;;;17.08;62.82;97531.94;4941858;28;102786;-81
2022/09/26 08:41:31;;;;;;;;;18.75;18.50;;;;;17.09;63.14;97524.56;4964053;28;102614;-81
2022/09/26 08:44:29;;;;;;;;;12.50;11.00;;;;;17.09;62.26;97521.84;4957231;28;108657;-80
2022/09/26 08:47:17;;;;;;;;;16.50;16.00;;;;;17.09;61.98;97521.84;4958579;28;102712;-81
2022/09/26 08:50:19;;;;;;;;;17.75;16.00;;;;;17.08;62.53;97518.28;4920379;28;102157;-80
2022/09/26 08:52:50;;;;;;;;;17.00;17.00;;;;;17.09;62.33;97524.56;4904848;28;102904;-80
2022/09/26 08:55:20;;;;;;;;;18.25;16.00;;;;;17.08;61.99;97525.66;4949478;28;104147;-80
2022/09/26 08:57:54;;;;;;;;;20.50;18.00;;;;;17.09;62.59;97521.84;4957291;28;102537;-80
2022/09/26 09:00:25;;;;;;;;;18.75;15.75;;;;;17.08;62.96;97522.91;4949558;28;102267;-82
2022/09/26 09:03:23;;;;;;;;;14.00;14.00;;;;;17.08;62.60;97521.00;4944418;28;102490;-81
2022/09/26 09:06:13;;;;;;;;;18.25;16.50;;;;;17.09;62.30;97527.31;4952500;28;108870;-80
2022/09/26 09:08:44;;;;;;;;;16.50;15.00;;;;;17.08;62.93;97521.00;4939436;28;102012;-80
2022/09/26 09:11:36;;;;;;;;;19.75;18.00;;;;;17.09;63.24;97521.84;4949737;28;102500;-80
2022/09/26 09:14:15;;;;;;;;;16.50;15.50;;;;;17.09;62.45;97521.84;4921445;28;102510;-80
2022/09/26 09:16:52;;;;;;;;;17.75;17.50;;;;;17.10;63.03;97518.03;4939486;28;104027;-80
2022/09/26 09:19:33;;;;;;;;;17.00;16.75;;;;;17.09;62.32;97510.91;4948719;28;102109;-80
2022/09/26 09:22:25;;;;;;;;;16.50;13.75;;;;;17.10;63.23;97518.03;4935735;28;102441;-81
2022/09/26 09:24:55;;;;;;;;;18.25;16.75;;;;;17.10;63.43;97518.03;4944550;28;102594;-82
2022/09/26 09:27:40;;;;;;;;;17.00;16.00;;;;;17.10;63.10;97513.38;4949691;28;104013;-82
2022/09/26 09:30:49;;;;;;;;;15.00;13.75;;;;;17.10;62.88;97518.84;4944267;28;102252;-81
2022/09/26 09:33:20;;;;;;;;;15.75;13.00;;;;;17.10;62.86;97515.28;4937798;28;109321;-81
2022/09/26 09:36:00;;;;;;;;;16.25;14.00;;;;;17.11;62.84;97519.69;4950958;28;102665;-80
2022/09/26 09:38:28;;;;;;;;;17.25;16.00;;;;;17.10;63.33;97515.28;4961631;28;108490;-81
2022/09/26 09:41:07;;;;;;;;;15.50;14.25;;;;;17.10;62.27;97518.84;4944894;28;102181;-81
2022/09/26 09:43:46;;;;;;;;;14.00;13.75;;;;;17.10;62.94;97524.31;4943382;28;103222;-80
2022/09/26 09:46:25;;;;;;;;;16.00;16.00;;;;;17.10;63.50;97524.31;4949651;28;102528;-80
2022/09/26 09:49:08;;;;;;;;;16.50;14.00;;;;;17.10;62.86;97523.50;4960266;28;109505;-82
2022/09/26 09:51:47;;;;;;;;;15.00;14.25;;;;;17.10;63.15;97518.84;4941099;28;102552;-81
2022/09/26 09:54:23;;;;;;;;;15.00;13.25;;;;;17.11;62.72;97508.75;4952489;28;102377;-80
2022/09/26 09:57:20;;;;;;;;;19.00;18.25;;;;;17.12;62.59;97513.09;4946944;28;102563;-80
2022/09/26 10:00:04;;;;;;;;;16.00;15.00;;;;;17.12;63.06;97511.19;4939278;28;108857;-81
2022/09/26 10:02:46;;;;;;;;;18.00;17.75;;;;;17.12;62.66;97513.09;4943338;28;102028;-80
2022/09/26 10:05:14;;;;;;;;;16.00;15.25;;;;;17.12;62.91;97513.91;4943460;28;102266;-80
2022/09/26 10:07:43;;;;;;;;;16.75;14.00;;;;;17.13;62.94;97517.47;4944742;28;109970;-80
2022/09/26 10:10:11;;;;;;;;;18.00;16.50;;;;;17.13;62.81;97512.84;4944721;28;104260;-80
2022/09/26 10:12:39;;;;;;;;;13.25;12.00;;;;;17.14;62.80;97519.94;4941067;28;102638;-80
2022/09/26 10:15:18;;;;;;;;;14.00;14.00;;;;;17.15;62.72;97515.31;4923460;28;102073;-80
2022/09/26 10:18:20;;;;;;;;;14.25;13.75;;;;;17.16;62.59;97515.03;4932123;28;102563;-80
2022/09/26 10:20:55;;;;;;;;;17.25;15.25;;;;;17.16;63.02;97508.72;4890292;28;108344;-80
2022/09/26 10:23:35;;;;;;;;;13.75;13.00;;;;;17.16;62.94;97514.19;4936941;28;102851;-80
2022/09/26 10:26:04;;;;;;;;;13.50;13.00;;;;;17.17;62.80;97518.56;4936502;28;102223;-80
2022/09/26 10:28:42;;;;;;;;;13.75;12.25;;;;;17.17;62.89;97507.66;4963361;28;102075;-80
2022/09/26 10:31:09;;;;;;;;;13.25;12.50;;;;;17.17;62.69;97502.19;4940337;28;104025;-80
2022/09/26 10:33:37;;;;;;;;;14.25;14.25;;;;;17.16;62.60;97497.81;4949063;28;102743;-80
2022/09/26 10:36:11;;;;;;;;;18.00;16.50;;;;;17.17;62.41;97497.53;4948752;28;102422;-80
2022/09/26 10:41:44;;;;;;;;;13.00;12.50;;;;;17.20;62.85;97501.66;4933693;28;109121;-80
2022/09/26 10:44:32;;;;;;;;;15.00;14.25;;;;;17.18;61.69;97499.19;4950018;28;102232;-80
2022/09/26 10:47:07;;;;;;;;;14.25;13.25;;;;;17.19;62.33;97494.56;4931407;28;102449;-81
2022/09/26 10:49:49;;;;;;;;;16.50;15.00;;;;;17.19;62.38;97494.56;4930818;28;102820;-80
2022/09/26 10:52:33;;;;;;;;;13.75;13.00;;;;;17.19;61.67;97494.56;4946346;28;104052;-80
2022/09/26 10:55:02;;;;;;;;;14.50;14.50;;;;;17.20;62.16;97496.19;4947034;28;102660;-80
2022/09/26 10:57:35;;;;;;;;;17.00;15.00;;;;;17.21;62.34;97487.72;4965116;28;102315;-80
2022/09/26 11:00:05;;;;;;;;;15.25;13.50;;;;;17.21;62.51;97482.25;4919980;28;102768;-80
2022/09/26 11:02:32;;;;;;;;;14.00;13.50;;;;;17.21;62.30;97482.25;4935820;28;104185;-80
2022/09/26 11:07:46;;;;;;;;;13.75;11.50;;;;;17.22;62.43;97466.69;4937990;28;102483;-80
2022/09/26 11:10:21;;;;;;;;;14.00;13.75;;;;;17.22;62.02;97474.88;4935011;28;104101;-80
2022/09/26 11:13:02;;;;;;;;;13.75;13.00;;;;;17.21;62.34;97471.31;4936600;28;105182;-80
2022/09/26 11:15:29;;;;;;;;;11.50;10.75;;;;;17.22;62.04;97474.88;4939123;28;102366;-80
2022/09/26 11:17:57;;;;;;;;;13.25;13.25;;;;;17.21;62.46;97474.06;4942518;28;102555;-80
2022/09/26 11:20:44;;;;;;;;;12.50;12.25;;;;;17.22;62.53;97477.63;4952025;28;102533;-81
2022/09/26 11:23:26;;;;;;;;;12.75;12.25;;;;;17.22;62.28;97474.88;4936908;28;104023;-80
2022/09/26 11:26:05;;;;;;;;;14.00;14.00;;;;;17.21;62.03;97476.78;4935814;28;103564;-80
2022/09/26 11:28:37;;;;;;;;;14.50;13.00;;;;;17.21;62.03;97471.31;4921849;28;102292;-80
2022/09/26 11:31:12;;;;;;;;;15.50;12.00;;;;;17.21;62.36;97465.84;4929444;28;102417;-80
2022/09/26 11:33:43;;;;;;;;;15.75;14.00;;;;;17.21;62.29;97465.84;4946853;28;104024;-79
2022/09/26 11:36:32;;;;;;;;;16.00;14.25;;;;;17.21;62.33;97465.03;4946065;28;103352;-80
2022/09/26 11:39:11;;;;;;;;;13.25;13.00;;;;;17.21;62.20;97454.94;4962521;28;102577;-80
2022/09/26 11:41:41;;;;;;;;;15.00;13.25;;;;;17.21;62.15;97448.66;4947423;28;102633;-79
2022/09/26 11:44:53;;;;;;;;;14.50;12.25;;;;;17.21;62.34;97444.00;4946894;28;104342;-80
2022/09/26 11:47:35;;;;;;;;;13.50;12.50;;;;;17.23;61.36;97441.00;4941818;28;102414;-79
2022/09/26 11:50:40;;;;;;;;;15.50;12.75;;;;;17.24;61.41;97437.19;4942791;28;103087;-79
2022/09/26 11:53:13;;;;;;;;;15.25;14.50;;;;;17.24;61.33;97431.72;4949120;28;102604;-80